createdAt,value
2022-07-30T00:02:20.934Z,19.13
2022-07-30T00:05:06.794Z,19.09
2022-07-30T00:07:52.359Z,19.08
2022-07-30T00:10:37.961Z,19.00
2022-07-30T00:13:23.191Z,19.06
2022-07-30T00:16:08.318Z,19.10
2022-07-30T00:18:53.322Z,19.11
2022-07-30T00:21:39.345Z,19.12
2022-07-30T00:24:24.728Z,19.11
2022-07-30T00:27:09.863Z,19.08
2022-07-30T00:29:55.280Z,19.09
2022-07-30T00:32:40.688Z,19.12
2022-07-30T00:35:25.921Z,19.11
2022-07-30T00:38:12.792Z,19.10
2022-07-30T00:40:58.101Z,18.97
2022-07-30T00:43:44.254Z,19.01
2022-07-30T00:46:29.392Z,19.04
2022-07-30T00:49:15.078Z,18.92
2022-07-30T00:52:00.112Z,18.88
2022-07-30T00:54:45.573Z,18.84
2022-07-30T00:57:30.673Z,18.75
2022-07-30T01:00:17.553Z,18.81
2022-07-30T01:03:02.904Z,18.84
2022-07-30T01:05:48.933Z,18.72
2022-07-30T01:08:34.206Z,18.67
2022-07-30T01:11:20.324Z,18.60
2022-07-30T01:14:07.629Z,18.59
2022-07-30T01:16:52.756Z,18.53
2022-07-30T01:19:40.439Z,18.57
2022-07-30T01:22:30.894Z,18.59
2022-07-30T01:25:27.865Z,18.58
2022-07-30T01:28:18.437Z,18.53
2022-07-30T01:31:06.049Z,18.49
2022-07-30T01:33:51.806Z,18.42
2022-07-30T01:36:37.392Z,18.44
2022-07-30T01:39:24.290Z,18.36
2022-07-30T01:42:11.728Z,18.37
2022-07-30T01:44:58.407Z,18.37
2022-07-30T01:47:45.020Z,18.36
2022-07-30T01:50:32.301Z,18.34
2022-07-30T01:53:20.871Z,18.11
2022-07-30T01:56:10.550Z,18.07
2022-07-30T01:58:58.583Z,18.13
2022-07-30T02:01:43.793Z,18.13
2022-07-30T02:04:29.712Z,18.04
2022-07-30T02:07:23.072Z,18.08
2022-07-30T02:10:17.511Z,18.05
2022-07-30T02:13:06.552Z,17.98
2022-07-30T02:15:56.721Z,17.94
2022-07-30T02:19:02.001Z,17.91
2022-07-30T02:22:03.053Z,17.86
2022-07-30T02:24:50.614Z,17.88
2022-07-30T02:27:40.179Z,17.92
2022-07-30T02:30:29.879Z,17.85
2022-07-30T02:33:18.966Z,17.78
2022-07-30T02:36:11.426Z,17.74
2022-07-30T02:38:58.740Z,17.75
2022-07-30T02:41:49.496Z,17.56
2022-07-30T02:44:38.486Z,17.51
2022-07-30T02:47:26.698Z,17.60
2022-07-30T02:50:13.307Z,17.68
2022-07-30T02:53:00.598Z,17.69
2022-07-30T02:55:47.973Z,17.62
2022-07-30T02:58:35.648Z,17.59
2022-07-30T03:01:23.402Z,17.49
2022-07-30T03:04:09.617Z,17.51
2022-07-30T03:06:55.914Z,17.43
2022-07-30T03:09:52.053Z,17.37
2022-07-30T03:12:41.685Z,17.36
2022-07-30T03:15:29.735Z,17.37
2022-07-30T03:18:17.598Z,17.21
2022-07-30T03:21:06.466Z,17.19
2022-07-30T03:23:54.843Z,17.19
2022-07-30T03:26:41.849Z,17.22
2022-07-30T03:29:28.483Z,17.24
2022-07-30T03:32:15.043Z,17.29
2022-07-30T03:35:05.890Z,17.32
2022-07-30T03:37:52.195Z,17.37
2022-07-30T03:40:37.451Z,17.37
2022-07-30T03:43:33.627Z,17.32
2022-07-30T03:46:19.716Z,17.14
2022-07-30T03:49:06.071Z,17.11
2022-07-30T03:51:52.419Z,17.17
2022-07-30T03:54:37.949Z,17.19
2022-07-30T03:57:23.516Z,17.21
2022-07-30T04:00:14.338Z,17.26
2022-07-30T04:02:59.864Z,17.22
2022-07-30T04:05:45.329Z,17.23
2022-07-30T04:08:30.659Z,17.16
2022-07-30T04:11:16.177Z,17.12
2022-07-30T04:14:01.727Z,17.17
2022-07-30T04:17:07.157Z,17.18
2022-07-30T04:19:56.321Z,17.23
2022-07-30T04:22:42.570Z,17.23
2022-07-30T04:25:28.537Z,17.25
2022-07-30T04:28:14.224Z,17.25
2022-07-30T04:30:59.590Z,17.21
2022-07-30T04:33:46.522Z,17.11
2022-07-30T04:36:33.142Z,17.12
2022-07-30T04:39:18.351Z,17.08
2022-07-30T04:42:03.782Z,17.11
2022-07-30T04:44:49.010Z,17.17
2022-07-30T04:47:34.263Z,17.22
2022-07-30T04:50:22.401Z,17.28
2022-07-30T04:53:08.215Z,17.20
2022-07-30T04:55:54.920Z,17.18
2022-07-30T04:58:40.788Z,17.17
2022-07-30T05:01:40.016Z,17.12
2022-07-30T05:04:28.818Z,17.09
2022-07-30T05:07:14.912Z,17.07
2022-07-30T05:10:00.395Z,17.10
2022-07-30T05:12:45.715Z,17.09
2022-07-30T05:15:35.890Z,17.09
2022-07-30T05:18:22.281Z,17.01
2022-07-30T05:21:08.216Z,16.97
2022-07-30T05:23:53.462Z,16.97
2022-07-30T05:26:38.910Z,16.99
2022-07-30T05:29:24.066Z,17.06
2022-07-30T05:32:09.485Z,17.05
2022-07-30T05:34:54.442Z,17.00
2022-07-30T05:37:39.857Z,16.98
2022-07-30T05:40:25.285Z,16.96
2022-07-30T05:43:10.601Z,17.00
2022-07-30T05:45:55.754Z,16.99
2022-07-30T05:48:41.067Z,17.05
2022-07-30T05:51:26.281Z,17.06
2022-07-30T05:54:11.816Z,17.07
2022-07-30T05:56:57.236Z,17.10
2022-07-30T05:59:42.563Z,16.95
2022-07-30T06:02:27.424Z,16.81
2022-07-30T06:05:12.827Z,16.92
2022-07-30T06:07:58.427Z,17.02
2022-07-30T06:10:43.709Z,17.10
2022-07-30T06:13:29.236Z,17.10
2022-07-30T06:16:14.296Z,17.02
2022-07-30T06:18:59.587Z,17.05
2022-07-30T06:22:05.708Z,17.10
2022-07-30T06:24:49.623Z,17.29
2022-07-30T06:27:39.437Z,17.09
2022-07-30T06:30:31.139Z,17.13
2022-07-30T06:33:16.896Z,17.11
2022-07-30T06:36:02.085Z,17.06
2022-07-30T06:38:47.165Z,17.06
2022-07-30T06:41:32.557Z,17.10
2022-07-30T06:44:17.847Z,17.27
2022-07-30T06:47:07.821Z,17.43
2022-07-30T06:49:53.336Z,17.48
2022-07-30T06:52:38.750Z,17.70
2022-07-30T06:55:24.181Z,17.89
2022-07-30T06:58:09.660Z,18.01
2022-07-30T07:00:54.983Z,18.20
2022-07-30T07:03:40.849Z,18.32
2022-07-30T07:06:26.153Z,18.22
2022-07-30T07:09:11.686Z,18.23
2022-07-30T07:11:57.124Z,18.41
2022-07-30T07:14:41.861Z,18.74
2022-07-30T07:17:26.802Z,19.06
2022-07-30T07:20:12.050Z,19.27
2022-07-30T07:22:57.644Z,19.64
2022-07-30T07:25:42.731Z,20.11
2022-07-30T07:28:29.973Z,20.58
2022-07-30T07:32:04.525Z,20.96
2022-07-30T07:34:24.204Z,21.00
2022-07-30T07:37:09.500Z,21.55
2022-07-30T07:39:54.859Z,21.98
2022-07-30T07:42:40.150Z,22.31
2022-07-30T07:45:25.490Z,22.65
2022-07-30T07:48:11.777Z,23.08
2022-07-30T07:51:00.069Z,23.62
2022-07-30T07:54:00.317Z,24.11
2022-07-30T07:56:51.731Z,24.36
2022-07-30T07:59:39.917Z,24.60
2022-07-30T08:02:25.581Z,24.46
2022-07-30T08:05:11.517Z,24.04
2022-07-30T08:07:56.755Z,24.26
2022-07-30T08:10:42.201Z,23.38
2022-07-30T08:13:49.255Z,24.05
2022-07-30T08:16:32.894Z,24.38
2022-07-30T08:19:18.181Z,25.44
2022-07-30T08:22:03.356Z,26.36
2022-07-30T08:24:48.704Z,26.84
2022-07-30T08:27:34.067Z,26.96
2022-07-30T08:30:20.097Z,27.28
2022-07-30T08:33:06.255Z,27.74
2022-07-30T08:35:59.301Z,28.14
2022-07-30T08:38:48.982Z,28.46
2022-07-30T08:41:36.397Z,28.45
2022-07-30T08:44:23.104Z,28.52
2022-07-30T08:47:09.700Z,28.83
2022-07-30T08:49:56.205Z,29.41
2022-07-30T08:52:42.205Z,29.75
2022-07-30T08:55:28.259Z,30.13
2022-07-30T08:58:28.678Z,29.93
2022-07-30T09:01:14.012Z,29.99
2022-07-30T09:03:59.232Z,30.50
2022-07-30T09:06:44.897Z,30.22
2022-07-30T09:09:29.977Z,29.17
2022-07-30T09:12:36.283Z,29.18
2022-07-30T09:15:21.630Z,29.17
2022-07-30T09:18:07.172Z,30.07
2022-07-30T09:20:52.726Z,30.36
2022-07-30T09:23:38.079Z,30.29
2022-07-30T09:26:23.520Z,28.53
2022-07-30T09:29:17.938Z,28.97
2022-07-30T09:32:05.854Z,29.68
2022-07-30T09:34:51.081Z,30.64
2022-07-30T09:37:36.557Z,31.03
2022-07-30T09:40:22.156Z,31.57
2022-07-30T09:43:14.889Z,32.07
2022-07-30T09:46:00.334Z,31.59
2022-07-30T09:48:45.949Z,31.81
2022-07-30T09:51:55.509Z,30.21
2022-07-30T09:54:52.705Z,30.88
2022-07-30T09:57:57.595Z,30.28
2022-07-30T10:00:44.422Z,30.64
2022-07-30T10:03:33.655Z,31.57
2022-07-30T10:06:35.079Z,31.30
2022-07-30T10:09:37.241Z,32.09
2022-07-30T10:12:25.417Z,32.58
2022-07-30T10:15:11.539Z,31.46
2022-07-30T10:18:00.429Z,31.57
2022-07-30T10:20:46.460Z,32.23
2022-07-30T10:23:33.052Z,32.56
2022-07-30T10:26:18.457Z,32.18
2022-07-30T10:29:04.741Z,32.57
2022-07-30T10:31:54.385Z,33.03
2022-07-30T10:34:42.657Z,33.08
2022-07-30T10:37:30.819Z,33.74
2022-07-30T10:40:30.682Z,33.24
2022-07-30T10:43:31.481Z,32.84
2022-07-30T10:46:33.673Z,32.08
2022-07-30T10:49:19.718Z,31.81
2022-07-30T10:52:04.923Z,31.73
2022-07-30T10:54:53.564Z,31.86
2022-07-30T10:57:57.190Z,30.61
2022-07-30T11:03:40.165Z,30.76
2022-07-30T11:06:29.860Z,31.35
2022-07-30T11:09:41.901Z,31.84
2022-07-30T11:12:42.271Z,31.79
2022-07-30T11:15:52.750Z,31.42
2022-07-30T11:19:55.524Z,31.17
2022-07-30T11:22:35.057Z,29.89
2022-07-30T11:25:21.766Z,30.06
2022-07-30T11:28:07.123Z,29.99
2022-07-30T11:30:53.942Z,30.65
2022-07-30T11:33:39.395Z,30.22
2022-07-30T11:36:24.705Z,29.86
2022-07-30T11:39:10.191Z,29.66
2022-07-30T11:42:27.409Z,30.02
2022-07-30T11:45:15.402Z,29.48
2022-07-30T11:48:00.828Z,29.67
2022-07-30T11:50:47.668Z,29.82
2022-07-30T11:53:33.225Z,30.27
2022-07-30T11:56:19.976Z,29.60
2022-07-30T11:59:08.147Z,29.34
2022-07-30T12:01:54.592Z,29.38
2022-07-30T12:04:44.082Z,30.50
2022-07-30T12:07:29.388Z,31.36
2022-07-30T12:10:27.066Z,32.48
2022-07-30T12:13:16.207Z,32.72
2022-07-30T12:16:01.243Z,32.03
2022-07-30T12:18:47.250Z,32.77
2022-07-30T12:21:33.617Z,32.91
2022-07-30T12:24:25.050Z,32.48
2022-07-30T12:27:10.551Z,33.14
2022-07-30T12:29:55.580Z,32.79
2022-07-30T12:32:41.584Z,33.25
2022-07-30T12:35:47.770Z,33.28
2022-07-30T12:38:44.272Z,33.95
2022-07-30T12:41:46.273Z,34.27
2022-07-30T12:44:40.165Z,34.51
2022-07-30T12:47:28.099Z,34.92
2022-07-30T12:50:17.418Z,35.42
2022-07-30T12:53:02.796Z,35.27
2022-07-30T12:55:48.053Z,35.01
2022-07-30T12:58:36.565Z,35.03
2022-07-30T13:01:40.834Z,34.68
2022-07-30T13:04:26.529Z,35.59
2022-07-30T13:07:12.402Z,34.97
2022-07-30T13:10:09.343Z,34.05
2022-07-30T13:12:54.860Z,34.13
2022-07-30T13:15:39.804Z,33.78
2022-07-30T13:18:39.254Z,33.11
2022-07-30T13:21:24.505Z,33.10
2022-07-30T13:24:09.680Z,33.03
2022-07-30T13:27:03.596Z,32.59
2022-07-30T13:29:49.264Z,32.31
2022-07-30T13:32:34.085Z,32.30
2022-07-30T13:35:19.368Z,32.15
2022-07-30T13:38:04.570Z,31.68
2022-07-30T13:48:24.533Z,29.69
2022-07-30T13:51:10.169Z,29.31
2022-07-30T13:53:55.219Z,28.94
2022-07-30T13:56:40.835Z,28.97
2022-07-30T13:59:26.283Z,28.67
2022-07-30T14:02:11.329Z,28.47
2022-07-30T14:04:56.867Z,28.50
2022-07-30T14:07:42.215Z,28.62
2022-07-30T14:10:27.432Z,28.19
2022-07-30T14:13:16.052Z,27.83
2022-07-30T14:16:17.881Z,27.89
2022-07-30T14:19:23.071Z,27.34
2022-07-30T14:22:09.090Z,27.49
2022-07-30T14:24:54.397Z,27.70
2022-07-30T14:27:40.100Z,27.85
2022-07-30T14:30:25.208Z,27.23
2022-07-30T14:33:10.880Z,27.20
2022-07-30T14:35:55.990Z,27.42
2022-07-30T14:38:41.307Z,27.40
2022-07-30T14:41:26.683Z,27.18
2022-07-30T14:44:12.071Z,27.37
2022-07-30T14:46:57.778Z,27.50
2022-07-30T14:49:42.925Z,27.52
2022-07-30T14:52:28.382Z,27.42
2022-07-30T14:55:13.557Z,27.29
2022-07-30T14:57:58.251Z,27.36
2022-07-30T15:00:48.537Z,27.18
2022-07-30T15:03:34.784Z,27.20
2022-07-30T15:06:19.928Z,27.23
2022-07-30T15:09:05.421Z,27.20
2022-07-30T15:12:08.467Z,27.07
2022-07-30T15:14:54.718Z,27.02
2022-07-30T15:17:40.631Z,27.02
2022-07-30T15:20:25.979Z,26.93
2022-07-30T15:23:13.532Z,26.75
2022-07-30T15:25:58.937Z,26.86
2022-07-30T15:28:44.192Z,26.76
2022-07-30T15:31:29.688Z,26.82
2022-07-30T15:34:15.077Z,26.94
2022-07-30T15:37:01.029Z,26.94
2022-07-30T15:39:46.181Z,26.92
2022-07-30T15:42:31.557Z,26.89
2022-07-30T15:45:18.308Z,26.94
2022-07-30T15:48:03.839Z,27.00
2022-07-30T15:50:49.139Z,26.89
2022-07-30T15:53:34.101Z,26.76
2022-07-30T15:56:19.134Z,26.71
2022-07-30T15:59:04.554Z,26.80
2022-07-30T16:01:49.944Z,26.56
2022-07-30T16:04:35.322Z,26.27
2022-07-30T16:07:20.762Z,26.42
2022-07-30T16:10:06.338Z,26.32
2022-07-30T16:12:51.571Z,26.18
2022-07-30T16:15:36.648Z,26.23
2022-07-30T16:18:22.045Z,26.28
2022-07-30T16:21:07.550Z,26.36
2022-07-30T16:23:52.626Z,26.32
2022-07-30T16:26:37.588Z,26.27
2022-07-30T16:29:22.855Z,26.11
2022-07-30T16:32:08.219Z,26.12
2022-07-30T16:34:53.498Z,26.16
2022-07-30T16:37:38.874Z,26.05
2022-07-30T16:40:24.288Z,26.12
2022-07-30T16:43:10.202Z,26.16
2022-07-30T16:45:55.614Z,26.09
2022-07-30T16:48:41.000Z,26.11
2022-07-30T16:51:26.460Z,26.08
2022-07-30T16:54:11.973Z,25.96
2022-07-30T16:56:57.483Z,25.76
2022-07-30T16:59:43.784Z,25.74
2022-07-30T17:02:28.982Z,25.68
2022-07-30T17:05:14.423Z,25.49
2022-07-30T17:07:59.720Z,25.50
2022-07-30T17:10:45.579Z,25.48
2022-07-30T17:13:31.050Z,25.49
2022-07-30T17:16:16.358Z,25.47
2022-07-30T17:19:09.163Z,25.58
2022-07-30T17:21:54.993Z,25.61
2022-07-30T17:24:40.610Z,25.68
2022-07-30T17:27:25.718Z,25.72
2022-07-30T17:30:10.941Z,25.66
2022-07-30T17:32:56.442Z,25.68
2022-07-30T17:35:41.558Z,25.71
2022-07-30T17:38:26.938Z,25.69
2022-07-30T17:41:13.625Z,25.70
2022-07-30T17:43:59.474Z,25.58
2022-07-30T17:46:44.534Z,25.47
2022-07-30T17:49:30.233Z,25.52
2022-07-30T17:52:15.497Z,25.28
2022-07-30T17:55:00.931Z,25.23
2022-07-30T17:57:46.136Z,25.07
2022-07-30T18:00:31.280Z,25.10
2022-07-30T18:03:16.545Z,25.07
2022-07-30T18:06:01.801Z,25.04
2022-07-30T18:08:48.192Z,24.82
2022-07-30T18:11:33.634Z,24.75
2022-07-30T18:14:19.206Z,24.32
2022-07-30T18:17:05.515Z,24.17
2022-07-30T18:19:50.881Z,24.12
2022-07-30T18:22:35.661Z,24.12
2022-07-30T18:25:23.180Z,24.12
2022-07-30T18:28:08.552Z,24.13
2022-07-30T18:30:54.038Z,24.03
2022-07-30T18:33:39.354Z,24.04
2022-07-30T18:36:25.084Z,24.07
2022-07-30T18:39:10.451Z,24.05
2022-07-30T18:41:55.299Z,24.07
2022-07-30T18:44:40.719Z,24.10
2022-07-30T18:47:25.588Z,24.07
2022-07-30T18:50:13.508Z,24.04
2022-07-30T18:52:59.026Z,23.96
2022-07-30T18:55:45.187Z,23.79
2022-07-30T18:58:30.437Z,23.80
2022-07-30T19:01:15.253Z,23.74
2022-07-30T19:04:00.676Z,23.62
2022-07-30T19:06:46.199Z,23.74
2022-07-30T19:09:31.483Z,23.66
2022-07-30T19:12:16.341Z,23.51
2022-07-30T19:15:01.771Z,23.57
2022-07-30T19:17:48.136Z,23.58
2022-07-30T19:20:33.541Z,23.51
2022-07-30T19:23:18.949Z,23.40
2022-07-30T19:26:03.841Z,23.33
2022-07-30T19:28:49.646Z,23.19
2022-07-30T19:31:35.313Z,23.20
2022-07-30T19:34:20.492Z,23.15
2022-07-30T19:37:05.292Z,23.04
2022-07-30T19:40:05.355Z,22.97
2022-07-30T19:42:51.625Z,22.94
2022-07-30T19:45:46.866Z,22.83
2022-07-30T19:48:33.160Z,22.81
2022-07-30T19:51:20.465Z,22.72
2022-07-30T19:54:06.307Z,22.68
2022-07-30T19:56:51.980Z,22.54
2022-07-30T19:59:45.733Z,22.46
2022-07-30T20:02:42.478Z,22.34
2022-07-30T20:05:27.927Z,22.28
2022-07-30T20:08:15.478Z,22.22
2022-07-30T20:11:00.874Z,22.11
2022-07-30T20:13:46.812Z,22.01
2022-07-30T20:16:32.870Z,21.95
2022-07-30T20:19:17.857Z,21.85
2022-07-30T20:22:07.581Z,21.84
2022-07-30T20:24:53.292Z,21.77
2022-07-30T20:27:39.093Z,21.75
2022-07-30T20:30:25.210Z,21.72
2022-07-30T20:33:10.815Z,21.68
2022-07-30T20:35:56.258Z,21.63
2022-07-30T20:38:41.740Z,21.54
2022-07-30T20:41:26.581Z,21.46
2022-07-30T20:44:22.995Z,21.10
2022-07-30T20:47:09.838Z,21.16
2022-07-30T20:49:54.913Z,21.22
2022-07-30T20:52:46.603Z,21.21
2022-07-30T20:55:33.195Z,21.22
2022-07-30T20:58:18.523Z,21.16
2022-07-30T21:01:04.878Z,21.08
2022-07-30T21:03:50.251Z,21.05
2022-07-30T21:06:35.105Z,21.09
2022-07-30T21:09:20.485Z,21.11
2022-07-30T21:12:06.364Z,21.16
2022-07-30T21:14:52.095Z,21.14
2022-07-30T21:17:37.519Z,21.01
2022-07-30T21:20:27.873Z,20.90
2022-07-30T21:23:13.200Z,20.95
2022-07-30T21:26:00.834Z,20.77
2022-07-30T21:28:48.885Z,20.96
2022-07-30T21:31:56.018Z,20.87
2022-07-30T21:34:42.250Z,20.81
2022-07-30T21:37:36.351Z,20.76
2022-07-30T21:40:24.733Z,20.66
2022-07-30T21:43:09.945Z,20.64
2022-07-30T21:45:56.968Z,20.66
2022-07-30T21:48:43.361Z,20.68
2022-07-30T21:51:28.575Z,20.58
2022-07-30T21:54:28.457Z,20.53
2022-07-30T21:57:14.517Z,20.47
2022-07-30T22:00:00.007Z,20.63
2022-07-30T22:02:53.281Z,20.60
2022-07-30T22:05:40.019Z,20.59
2022-07-30T22:08:27.169Z,20.58
2022-07-30T22:11:12.765Z,20.52
2022-07-30T22:13:59.115Z,20.52
2022-07-30T22:16:46.921Z,20.49
2022-07-30T22:19:32.178Z,20.45
2022-07-30T22:22:27.350Z,20.46
2022-07-30T22:25:13.605Z,20.50
2022-07-30T22:27:59.026Z,20.52
2022-07-30T22:30:44.237Z,20.51
2022-07-30T22:33:29.848Z,20.47
2022-07-30T22:36:16.088Z,20.48
2022-07-30T22:39:01.004Z,20.45
2022-07-30T22:41:46.285Z,20.48
2022-07-30T22:44:31.791Z,20.47
2022-07-30T22:47:21.840Z,20.47
2022-07-30T22:50:26.247Z,20.46
2022-07-30T22:53:23.740Z,20.45
2022-07-30T22:56:16.847Z,20.41
2022-07-30T22:59:02.393Z,20.41
2022-07-30T23:01:50.274Z,20.32
2022-07-30T23:04:35.853Z,20.30
2022-07-30T23:07:22.292Z,20.33
2022-07-30T23:10:17.615Z,20.32
2022-07-30T23:13:03.436Z,20.26
2022-07-30T23:15:48.804Z,20.24
2022-07-30T23:18:34.661Z,20.27
2022-07-30T23:21:20.675Z,20.28
2022-07-30T23:24:05.830Z,20.21
2022-07-30T23:26:51.109Z,20.20
2022-07-30T23:29:36.121Z,20.18
2022-07-30T23:32:21.484Z,20.11
2022-07-30T23:35:08.550Z,20.09
2022-07-30T23:37:53.895Z,20.07
2022-07-30T23:40:39.248Z,20.05
2022-07-30T23:43:24.637Z,20.01
2022-07-30T23:46:11.283Z,20.03
2022-07-30T23:48:56.286Z,20.07
2022-07-30T23:51:41.720Z,19.92
2022-07-30T23:54:26.687Z,19.67
2022-07-30T23:57:12.233Z,19.53
2022-07-30T23:59:57.387Z,19.56
